createdAt,value
2022-11-20T00:00:45.236Z,0.90
2022-11-20T00:03:13.002Z,0.85
2022-11-20T00:05:40.575Z,0.88
2022-11-20T00:08:08.240Z,1.02
2022-11-20T00:10:39.577Z,1.02
2022-11-20T00:13:07.794Z,0.84
2022-11-20T00:15:35.597Z,0.83
2022-11-20T00:18:03.298Z,0.78
2022-11-20T00:20:31.222Z,0.80
2022-11-20T00:22:59.280Z,0.89
2022-11-20T00:25:26.931Z,0.87
2022-11-20T00:27:55.989Z,0.95
2022-11-20T00:30:23.755Z,0.93
2022-11-20T00:32:51.627Z,0.91
2022-11-20T00:35:20.131Z,0.79
2022-11-20T00:37:48.018Z,0.82
2022-11-20T00:40:15.863Z,0.85
2022-11-20T00:42:43.512Z,0.76
2022-11-20T00:45:12.756Z,0.82
2022-11-20T00:47:40.528Z,0.82
2022-11-20T00:50:08.752Z,0.87
2022-11-20T00:52:36.341Z,0.87
2022-11-20T00:55:04.162Z,0.88
2022-11-20T00:57:31.911Z,0.93
2022-11-20T00:59:59.572Z,0.99
2022-11-20T01:02:28.570Z,0.99
2022-11-20T01:04:56.153Z,0.96
2022-11-20T01:07:23.977Z,0.88
2022-11-20T01:09:51.673Z,1.06
2022-11-20T01:12:19.251Z,0.94
2022-11-20T01:14:47.350Z,0.90
2022-11-20T01:17:14.911Z,0.77
2022-11-20T01:19:43.956Z,0.92
2022-11-20T01:22:11.823Z,0.96
2022-11-20T01:24:39.426Z,0.91
2022-11-20T01:27:07.222Z,0.90
2022-11-20T01:29:35.005Z,0.92
2022-11-20T01:32:02.668Z,0.94
2022-11-20T01:34:30.470Z,0.90
2022-11-20T01:36:59.477Z,1.10
2022-11-20T01:39:28.555Z,1.00
2022-11-20T01:42:15.348Z,0.92
2022-11-20T01:44:50.942Z,0.87
2022-11-20T01:47:22.150Z,1.01
2022-11-20T01:49:53.215Z,0.92
2022-11-20T01:52:23.742Z,0.90
2022-11-20T01:54:55.889Z,0.92
2022-11-20T01:57:24.182Z,0.98
2022-11-20T01:59:56.356Z,0.99
2022-11-20T02:02:24.122Z,0.91
2022-11-20T02:04:53.938Z,0.91
2022-11-20T02:07:26.919Z,1.01
2022-11-20T02:09:58.713Z,1.00
2022-11-20T02:12:48.328Z,0.94
2022-11-20T02:15:17.590Z,0.88
2022-11-20T02:17:46.357Z,0.89
2022-11-20T02:20:14.932Z,1.09
2022-11-20T02:22:54.850Z,0.94
2022-11-20T02:25:26.571Z,1.00
2022-11-20T02:27:56.607Z,0.96
2022-11-20T02:30:25.161Z,0.90
2022-11-20T02:32:56.928Z,1.04
2022-11-20T02:35:46.420Z,1.01
2022-11-20T02:38:15.696Z,0.98
2022-11-20T02:40:45.165Z,1.03
2022-11-20T02:43:13.441Z,1.01
2022-11-20T02:45:43.958Z,1.03
2022-11-20T02:48:12.050Z,1.02
2022-11-20T02:50:45.242Z,1.10
2022-11-20T02:53:13.601Z,1.07
2022-11-20T02:55:46.322Z,1.10
2022-11-20T02:58:14.884Z,1.05
2022-11-20T03:00:43.469Z,1.07
2022-11-20T03:03:11.711Z,1.03
2022-11-20T03:05:40.253Z,1.06
2022-11-20T03:08:08.628Z,1.16
2022-11-20T03:10:40.410Z,1.18
2022-11-20T03:13:14.070Z,1.18
2022-11-20T03:15:43.660Z,1.18
2022-11-20T03:18:11.792Z,1.20
2022-11-20T03:20:40.226Z,1.17
2022-11-20T03:23:09.456Z,1.13
2022-11-20T03:25:37.697Z,1.20
2022-11-20T03:28:05.559Z,1.20
2022-11-20T03:30:34.877Z,1.18
2022-11-20T03:33:02.666Z,1.23
2022-11-20T03:35:30.576Z,1.19
2022-11-20T03:38:04.774Z,1.28
2022-11-20T03:40:34.562Z,1.35
2022-11-20T03:43:02.204Z,1.20
2022-11-20T03:45:30.011Z,1.19
2022-11-20T03:47:59.165Z,1.29
2022-11-20T03:50:27.043Z,1.36
2022-11-20T03:52:55.702Z,1.28
2022-11-20T03:55:24.880Z,1.31
2022-11-20T03:57:53.133Z,1.29
2022-11-20T04:00:21.652Z,1.31
2022-11-20T04:02:49.849Z,1.33
2022-11-20T04:05:19.654Z,1.37
2022-11-20T04:07:48.342Z,1.36
2022-11-20T04:10:16.708Z,1.34
2022-11-20T04:12:45.090Z,1.38
2022-11-20T04:15:13.739Z,1.35
2022-11-20T04:17:42.676Z,1.33
2022-11-20T04:20:14.687Z,1.33
2022-11-20T04:22:44.605Z,1.28
2022-11-20T04:25:13.006Z,1.21
2022-11-20T04:27:41.274Z,1.28
2022-11-20T04:30:10.755Z,1.27
2022-11-20T04:32:39.863Z,1.25
2022-11-20T04:35:08.750Z,1.28
2022-11-20T04:37:37.023Z,1.21
2022-11-20T04:40:08.377Z,1.34
2022-11-20T04:42:36.844Z,1.20
2022-11-20T04:45:05.650Z,1.33
2022-11-20T04:47:34.073Z,1.38
2022-11-20T04:50:02.869Z,1.34
2022-11-20T04:52:32.307Z,1.28
2022-11-20T04:55:00.563Z,1.26
2022-11-20T04:57:30.164Z,1.26
2022-11-20T04:59:57.789Z,1.34
2022-11-20T05:02:25.596Z,1.36
2022-11-20T05:04:53.242Z,1.44
2022-11-20T05:07:21.001Z,1.44
2022-11-20T05:09:48.600Z,1.45
2022-11-20T05:12:16.210Z,1.38
2022-11-20T05:14:45.124Z,1.42
2022-11-20T05:17:13.381Z,1.35
2022-11-20T05:19:40.918Z,1.49
2022-11-20T05:22:08.505Z,1.48
2022-11-20T05:24:36.147Z,1.52
2022-11-20T05:27:03.993Z,1.59
2022-11-20T05:29:31.564Z,1.53
2022-11-20T05:32:00.489Z,1.41
2022-11-20T05:34:28.069Z,1.39
2022-11-20T05:36:55.601Z,1.47
2022-11-20T05:39:23.513Z,1.38
2022-11-20T05:42:11.485Z,1.45
2022-11-20T05:44:39.107Z,1.44
2022-11-20T05:47:08.140Z,1.53
2022-11-20T05:49:35.741Z,1.46
2022-11-20T05:52:03.320Z,1.41
2022-11-20T05:54:30.923Z,1.41
2022-11-20T05:56:58.466Z,1.46
2022-11-20T05:59:26.025Z,1.32
2022-11-20T06:01:53.657Z,1.31
2022-11-20T06:04:22.549Z,1.50
2022-11-20T06:06:50.165Z,1.26
2022-11-20T06:09:17.758Z,1.45
2022-11-20T06:11:45.319Z,1.20
2022-11-20T06:14:12.936Z,1.14
2022-11-20T06:16:40.529Z,1.21
2022-11-20T06:19:08.093Z,1.28
2022-11-20T06:21:37.009Z,1.36
2022-11-20T06:24:05.041Z,1.29
2022-11-20T06:26:32.729Z,1.27
2022-11-20T06:29:00.413Z,1.33
2022-11-20T06:31:28.188Z,1.35
2022-11-20T06:33:56.134Z,1.31
2022-11-20T06:36:25.174Z,1.35
2022-11-20T06:38:54.232Z,1.37
2022-11-20T06:41:23.320Z,1.35
2022-11-20T06:43:51.726Z,1.38
2022-11-20T06:46:20.691Z,1.36
2022-11-20T06:48:49.426Z,1.52
2022-11-20T06:51:17.695Z,1.50
2022-11-20T06:53:45.849Z,1.56
2022-11-20T06:56:14.997Z,1.51
2022-11-20T06:58:42.630Z,1.49
2022-11-20T07:01:18.180Z,1.52
2022-11-20T07:03:50.035Z,1.54
2022-11-20T07:06:20.631Z,1.59
2022-11-20T07:08:48.910Z,1.65
2022-11-20T07:11:18.055Z,1.69
2022-11-20T07:13:45.863Z,1.74
2022-11-20T07:16:13.497Z,1.66
2022-11-20T07:18:44.733Z,1.77
2022-11-20T07:21:15.427Z,1.65
2022-11-20T07:23:43.017Z,1.68
2022-11-20T07:26:12.736Z,1.73
2022-11-20T07:28:41.870Z,1.52
2022-11-20T07:31:12.403Z,1.57
2022-11-20T07:33:43.658Z,1.51
2022-11-20T07:36:11.486Z,1.67
2022-11-20T07:38:39.345Z,1.58
2022-11-20T07:41:06.940Z,1.60
2022-11-20T07:43:39.913Z,1.66
2022-11-20T07:46:10.622Z,1.65
2022-11-20T07:48:38.273Z,1.67
2022-11-20T07:51:06.027Z,1.64
2022-11-20T07:53:33.811Z,1.66
2022-11-20T07:56:02.009Z,1.74
2022-11-20T07:58:30.961Z,1.81
2022-11-20T08:00:59.107Z,1.90
2022-11-20T08:03:28.170Z,1.90
2022-11-20T08:05:55.906Z,2.00
2022-11-20T08:08:23.806Z,2.05
2022-11-20T08:10:51.532Z,2.04
2022-11-20T08:13:36.593Z,2.12
2022-11-20T08:16:04.563Z,2.14
2022-11-20T08:18:33.637Z,2.06
2022-11-20T08:21:04.440Z,2.07
2022-11-20T08:23:32.061Z,2.10
2022-11-20T08:25:59.671Z,2.20
2022-11-20T08:28:27.397Z,2.20
2022-11-20T08:31:00.197Z,2.28
2022-11-20T08:33:27.927Z,2.18
2022-11-20T08:36:00.929Z,2.24
2022-11-20T08:38:28.609Z,2.22
2022-11-20T08:41:16.660Z,2.39
2022-11-20T08:43:44.429Z,2.45
2022-11-20T08:46:12.009Z,2.48
2022-11-20T08:48:40.418Z,2.46
2022-11-20T08:51:10.041Z,2.53
2022-11-20T08:53:37.793Z,2.52
2022-11-20T08:56:06.016Z,2.67
2022-11-20T08:58:54.905Z,2.58
2022-11-20T09:01:22.304Z,2.71
2022-11-20T09:03:50.036Z,2.65
2022-11-20T09:06:19.012Z,2.74
2022-11-20T09:08:46.983Z,2.75
2022-11-20T09:11:14.707Z,2.79
2022-11-20T09:13:42.249Z,2.77
2022-11-20T09:16:11.512Z,2.77
2022-11-20T09:18:39.743Z,2.86
2022-11-20T09:21:08.816Z,2.76
2022-11-20T09:23:38.829Z,2.83
2022-11-20T09:26:07.319Z,2.85
2022-11-20T09:28:35.170Z,2.79
2022-11-20T09:31:02.991Z,2.74
2022-11-20T09:33:30.570Z,2.82
2022-11-20T09:35:58.597Z,2.89
2022-11-20T09:38:26.233Z,2.88
2022-11-20T09:40:59.307Z,2.96
2022-11-20T09:43:36.379Z,2.99
2022-11-20T09:46:09.986Z,2.97
2022-11-20T09:48:45.357Z,2.97
2022-11-20T09:51:23.051Z,3.05
2022-11-20T09:54:02.542Z,3.07
2022-11-20T09:56:31.491Z,3.10
2022-11-20T09:59:02.002Z,3.07
2022-11-20T10:01:33.598Z,3.02
2022-11-20T10:04:03.827Z,3.07
2022-11-20T10:06:32.754Z,3.06
2022-11-20T10:09:08.953Z,3.11
2022-11-20T10:11:47.841Z,3.16
2022-11-20T10:14:23.728Z,3.11
2022-11-20T10:16:58.232Z,3.16
2022-11-20T10:19:37.662Z,3.15
2022-11-20T10:22:13.944Z,3.08
2022-11-20T10:24:46.083Z,3.09
2022-11-20T10:27:37.058Z,3.17
2022-11-20T10:30:09.913Z,3.22
2022-11-20T10:32:39.828Z,3.31
2022-11-20T10:35:12.026Z,3.32
2022-11-20T10:37:43.228Z,3.38
2022-11-20T10:40:21.870Z,3.43
2022-11-20T10:42:54.789Z,3.49
2022-11-20T10:45:33.646Z,3.64
2022-11-20T10:48:12.570Z,3.69
2022-11-20T10:50:43.404Z,3.71
2022-11-20T10:53:20.338Z,3.59
2022-11-20T10:55:51.631Z,3.68
2022-11-20T10:58:27.873Z,3.75
2022-11-20T11:01:05.454Z,3.83
2022-11-20T11:03:33.523Z,3.77
2022-11-20T11:06:04.550Z,3.82
2022-11-20T11:08:37.570Z,3.82
2022-11-20T11:11:18.032Z,3.88
2022-11-20T11:13:47.037Z,3.91
2022-11-20T11:16:22.495Z,3.98
2022-11-20T11:18:50.138Z,4.16
2022-11-20T11:21:23.634Z,4.11
2022-11-20T11:24:13.438Z,4.21
2022-11-20T11:26:54.193Z,4.19
2022-11-20T11:29:23.206Z,4.15
2022-11-20T11:31:51.016Z,4.34
2022-11-20T11:34:19.487Z,4.27
2022-11-20T11:36:54.852Z,4.23
2022-11-20T11:39:23.058Z,4.24
2022-11-20T11:41:50.872Z,4.33
2022-11-20T11:44:37.631Z,4.34
2022-11-20T11:47:12.246Z,4.41
2022-11-20T11:49:39.865Z,4.40
2022-11-20T11:52:14.941Z,4.29
2022-11-20T11:54:48.018Z,4.30
2022-11-20T11:57:21.893Z,4.30
2022-11-20T11:59:57.003Z,4.33
2022-11-20T12:02:33.640Z,4.47
2022-11-20T12:05:04.382Z,4.56
2022-11-20T12:07:48.574Z,4.60
2022-11-20T12:10:22.948Z,4.71
2022-11-20T12:12:54.715Z,4.79
2022-11-20T12:15:28.964Z,4.79
2022-11-20T12:17:58.100Z,4.87
2022-11-20T12:20:28.385Z,4.70
2022-11-20T12:23:01.715Z,4.81
2022-11-20T12:25:31.181Z,4.74
2022-11-20T12:28:26.382Z,4.60
2022-11-20T12:31:06.769Z,4.69
2022-11-20T12:34:04.718Z,4.69
2022-11-20T12:36:39.551Z,4.66
2022-11-20T12:39:18.230Z,4.61
2022-11-20T12:42:10.984Z,4.60
2022-11-20T12:45:12.759Z,4.71
2022-11-20T12:47:53.949Z,4.79
2022-11-20T12:50:35.197Z,4.93
2022-11-20T12:53:26.028Z,5.05
2022-11-20T12:55:58.961Z,5.05
2022-11-20T12:58:32.036Z,4.99
2022-11-20T13:01:02.874Z,5.00
2022-11-20T13:03:39.065Z,5.13
2022-11-20T13:06:16.228Z,5.22
2022-11-20T13:08:46.297Z,5.17
2022-11-20T13:11:18.065Z,5.34
2022-11-20T13:13:58.093Z,5.48
2022-11-20T13:16:29.572Z,5.57
2022-11-20T13:18:57.238Z,5.68
2022-11-20T13:21:39.326Z,5.75
2022-11-20T13:24:07.393Z,5.84
2022-11-20T13:26:35.011Z,5.90
2022-11-20T13:29:09.950Z,5.97
2022-11-20T13:31:39.468Z,5.86
2022-11-20T13:34:08.651Z,5.84
2022-11-20T13:36:37.702Z,5.87
2022-11-20T13:39:05.342Z,5.89
2022-11-20T13:41:36.125Z,5.99
2022-11-20T13:44:12.232Z,6.08
2022-11-20T13:46:43.764Z,6.29
2022-11-20T13:49:12.884Z,6.41
2022-11-20T13:51:46.169Z,6.47
2022-11-20T13:54:38.411Z,6.50
2022-11-20T13:57:14.227Z,6.58
2022-11-20T13:59:48.617Z,6.56
2022-11-20T14:02:17.678Z,6.52
2022-11-20T14:04:47.431Z,6.47
2022-11-20T14:07:17.528Z,6.48
2022-11-20T14:09:53.249Z,6.42
2022-11-20T14:12:22.607Z,6.45
2022-11-20T14:14:52.233Z,6.39
2022-11-20T14:17:22.173Z,6.44
2022-11-20T14:19:51.116Z,6.39
2022-11-20T14:22:22.648Z,6.38
2022-11-20T14:24:51.440Z,6.36
2022-11-20T14:27:21.088Z,6.38
2022-11-20T14:29:50.286Z,6.32
2022-11-20T14:32:19.613Z,6.29
2022-11-20T14:34:49.905Z,6.33
2022-11-20T14:37:22.748Z,6.32
2022-11-20T14:39:52.762Z,6.28
2022-11-20T14:42:21.812Z,6.26
2022-11-20T14:44:50.500Z,6.20
2022-11-20T14:47:20.969Z,6.17
2022-11-20T14:49:49.243Z,6.10
2022-11-20T14:52:18.213Z,6.08
2022-11-20T14:54:48.177Z,6.10
2022-11-20T14:57:27.798Z,6.08
2022-11-20T15:00:07.910Z,6.07
2022-11-20T15:02:35.715Z,6.11
2022-11-20T15:05:04.472Z,6.08
2022-11-20T15:07:35.249Z,6.07
2022-11-20T15:10:06.108Z,6.06
2022-11-20T15:12:34.446Z,6.12
2022-11-20T15:15:02.873Z,6.01
2022-11-20T15:17:30.766Z,5.96
2022-11-20T15:19:58.548Z,5.99
2022-11-20T15:22:26.145Z,5.96
2022-11-20T15:24:53.735Z,5.92
2022-11-20T15:27:22.653Z,5.88
2022-11-20T15:29:50.262Z,5.84
2022-11-20T15:32:17.905Z,5.85
2022-11-20T15:34:45.506Z,5.82
2022-11-20T15:37:13.098Z,5.71
2022-11-20T15:39:40.685Z,5.75
2022-11-20T15:42:08.314Z,5.70
2022-11-20T15:44:37.321Z,5.70
2022-11-20T15:47:05.090Z,5.64
2022-11-20T15:49:32.718Z,5.67
2022-11-20T15:52:00.295Z,5.64
2022-11-20T15:54:27.920Z,5.63
2022-11-20T15:56:55.540Z,5.63
2022-11-20T15:59:23.134Z,5.64
2022-11-20T16:01:52.218Z,5.66
2022-11-20T16:04:20.500Z,5.68
2022-11-20T16:06:48.476Z,5.71
2022-11-20T16:09:16.126Z,5.76
2022-11-20T16:11:43.726Z,5.72
2022-11-20T16:14:31.995Z,5.68
2022-11-20T16:17:00.937Z,5.70
2022-11-20T16:19:28.524Z,5.66
2022-11-20T16:22:02.628Z,5.67
2022-11-20T16:24:30.858Z,5.65
2022-11-20T16:26:58.849Z,5.64
2022-11-20T16:29:26.431Z,5.62
2022-11-20T16:31:53.999Z,5.65
2022-11-20T16:34:22.951Z,5.63
2022-11-20T16:36:50.511Z,5.62
2022-11-20T16:39:23.357Z,5.62
2022-11-20T16:41:51.579Z,5.68
2022-11-20T16:44:19.178Z,5.70
2022-11-20T16:46:46.779Z,5.63
2022-11-20T16:49:15.585Z,5.69
2022-11-20T16:51:44.643Z,5.73
2022-11-20T16:54:16.420Z,5.73
2022-11-20T16:56:44.158Z,5.73
2022-11-20T16:59:11.786Z,5.73
2022-11-20T17:01:41.721Z,5.67
2022-11-20T17:04:09.373Z,5.67
2022-11-20T17:06:38.946Z,5.73
2022-11-20T17:09:09.535Z,5.72
2022-11-20T17:11:38.196Z,5.81
2022-11-20T17:14:07.287Z,5.79
2022-11-20T17:16:36.098Z,5.72
2022-11-20T17:19:05.230Z,5.66
2022-11-20T17:21:33.343Z,5.75
2022-11-20T17:24:01.846Z,5.71
2022-11-20T17:26:30.870Z,5.64
2022-11-20T17:29:00.082Z,5.56
2022-11-20T17:31:28.359Z,5.64
2022-11-20T17:33:55.971Z,5.67
2022-11-20T17:36:23.834Z,5.60
2022-11-20T17:38:51.965Z,5.59
2022-11-20T17:41:22.141Z,5.58
2022-11-20T17:43:51.161Z,5.70
2022-11-20T17:46:20.614Z,5.63
2022-11-20T17:48:49.673Z,5.83
2022-11-20T17:51:19.338Z,5.77
2022-11-20T17:53:48.133Z,5.80
2022-11-20T17:56:33.645Z,5.77
2022-11-20T17:59:05.766Z,5.72
2022-11-20T18:01:33.425Z,5.75
2022-11-20T18:04:01.057Z,5.78
2022-11-20T18:06:30.022Z,5.81
2022-11-20T18:08:58.950Z,5.74
2022-11-20T18:11:27.826Z,5.82
2022-11-20T18:14:14.319Z,5.79
2022-11-20T18:16:45.904Z,5.70
2022-11-20T18:19:15.586Z,5.63
2022-11-20T18:21:43.325Z,5.68
2022-11-20T18:24:11.398Z,5.70
2022-11-20T18:26:44.071Z,5.72
2022-11-20T18:29:12.376Z,5.73
2022-11-20T18:31:40.260Z,5.57
2022-11-20T18:34:12.897Z,5.62
2022-11-20T18:36:40.913Z,5.63
2022-11-20T18:39:08.591Z,5.65
2022-11-20T18:41:53.877Z,5.47
2022-11-20T18:44:40.863Z,5.55
2022-11-20T18:47:14.263Z,5.53
2022-11-20T18:49:46.123Z,5.41
2022-11-20T18:52:14.237Z,5.42
2022-11-20T18:54:42.001Z,5.46
2022-11-20T18:57:14.369Z,5.45
2022-11-20T18:59:42.825Z,5.48
2022-11-20T19:02:12.138Z,5.48
2022-11-20T19:04:39.941Z,5.55
2022-11-20T19:07:11.887Z,5.40
2022-11-20T19:09:39.912Z,5.38
2022-11-20T19:12:08.342Z,5.42
2022-11-20T19:14:36.026Z,5.38
2022-11-20T19:17:04.205Z,5.40
2022-11-20T19:19:31.815Z,5.41
2022-11-20T19:21:59.444Z,5.41
2022-11-20T19:24:29.173Z,5.44
2022-11-20T19:26:57.235Z,5.44
2022-11-20T19:29:26.738Z,5.37
2022-11-20T19:31:54.581Z,5.34
2022-11-20T19:34:22.229Z,5.29
2022-11-20T19:36:49.791Z,5.24
2022-11-20T19:39:17.860Z,5.18
2022-11-20T19:41:46.907Z,5.28
2022-11-20T19:44:15.851Z,5.22
2022-11-20T19:46:43.932Z,5.21
2022-11-20T19:49:13.026Z,5.19
2022-11-20T19:51:46.397Z,5.04
2022-11-20T19:54:14.514Z,5.11
2022-11-20T19:56:42.204Z,5.08
2022-11-20T19:59:11.103Z,5.18
2022-11-20T20:01:38.730Z,5.18
2022-11-20T20:04:07.000Z,5.15
2022-11-20T20:06:36.162Z,5.16
2022-11-20T20:09:06.008Z,5.08
2022-11-20T20:11:34.593Z,4.95
2022-11-20T20:14:03.589Z,4.97
2022-11-20T20:16:32.662Z,4.89
2022-11-20T20:19:01.848Z,4.95
2022-11-20T20:21:30.532Z,4.90
2022-11-20T20:24:00.724Z,4.86
2022-11-20T20:26:29.798Z,4.93
2022-11-20T20:28:57.714Z,4.74
2022-11-20T20:31:27.546Z,4.79
2022-11-20T20:33:57.030Z,4.79
2022-11-20T20:36:25.360Z,4.63
2022-11-20T20:38:53.220Z,4.67
2022-11-20T20:41:21.691Z,4.63
2022-11-20T20:44:06.664Z,4.68
2022-11-20T20:46:34.473Z,4.65
2022-11-20T20:49:03.410Z,4.68
2022-11-20T20:51:31.132Z,4.68
2022-11-20T20:53:59.332Z,4.66
2022-11-20T20:56:27.017Z,4.72
2022-11-20T20:58:54.701Z,4.74
2022-11-20T21:01:22.715Z,4.68
2022-11-20T21:03:50.355Z,4.71
2022-11-20T21:06:19.280Z,4.65
2022-11-20T21:08:47.017Z,4.68
2022-11-20T21:11:15.872Z,4.70
2022-11-20T21:13:44.604Z,4.72
2022-11-20T21:16:13.155Z,4.68
2022-11-20T21:18:40.839Z,4.67
2022-11-20T21:21:27.714Z,4.78
2022-11-20T21:23:56.902Z,4.74
2022-11-20T21:26:24.464Z,4.75
2022-11-20T21:28:52.119Z,4.77
2022-11-20T21:31:22.634Z,4.88
2022-11-20T21:33:52.234Z,4.95
2022-11-20T21:36:21.384Z,4.92
2022-11-20T21:38:49.612Z,4.91
2022-11-20T21:41:18.781Z,4.95
2022-11-20T21:44:09.192Z,5.02
2022-11-20T21:46:39.697Z,4.99
2022-11-20T21:49:07.459Z,5.02
2022-11-20T21:51:35.179Z,5.04
2022-11-20T21:54:02.938Z,5.08
2022-11-20T21:56:31.932Z,5.04
2022-11-20T21:58:59.640Z,5.04
2022-11-20T22:01:29.208Z,5.05
2022-11-20T22:03:58.447Z,5.11
2022-11-20T22:06:27.042Z,5.19
2022-11-20T22:08:54.614Z,5.22
2022-11-20T22:11:23.090Z,5.28
2022-11-20T22:14:09.873Z,5.34
2022-11-20T22:16:38.543Z,5.37
2022-11-20T22:19:07.052Z,5.46
2022-11-20T22:21:35.070Z,5.49
2022-11-20T22:24:02.776Z,5.49
2022-11-20T22:26:36.096Z,5.42
2022-11-20T22:29:07.778Z,5.53
2022-11-20T22:31:35.391Z,5.47
2022-11-20T22:34:03.764Z,5.46
2022-11-20T22:36:32.479Z,5.49
2022-11-20T22:39:03.396Z,5.44
2022-11-20T22:41:31.666Z,5.50
2022-11-20T22:44:00.714Z,5.47
2022-11-20T22:46:31.925Z,5.53
2022-11-20T22:49:01.309Z,5.29
2022-11-20T22:51:30.360Z,5.33
2022-11-20T22:53:58.119Z,5.42
2022-11-20T22:56:26.661Z,5.38
2022-11-20T22:58:55.362Z,5.39
2022-11-20T23:01:24.251Z,5.44
2022-11-20T23:03:55.810Z,5.26
2022-11-20T23:06:24.311Z,5.27
2022-11-20T23:08:52.542Z,5.33
2022-11-20T23:11:21.577Z,5.35
2022-11-20T23:13:52.891Z,5.30
2022-11-20T23:16:20.937Z,5.27
2022-11-20T23:18:48.566Z,5.30
2022-11-20T23:21:19.561Z,5.27
2022-11-20T23:23:49.419Z,5.28
2022-11-20T23:26:19.129Z,5.28
2022-11-20T23:28:47.346Z,5.22
2022-11-20T23:31:16.269Z,5.18
2022-11-20T23:33:45.064Z,5.19
2022-11-20T23:36:13.083Z,5.18
2022-11-20T23:38:42.282Z,5.17
2022-11-20T23:41:10.028Z,5.21
2022-11-20T23:43:37.651Z,5.28
2022-11-20T23:46:05.771Z,5.25
2022-11-20T23:48:35.743Z,5.14
2022-11-20T23:51:03.961Z,5.03
2022-11-20T23:53:32.128Z,5.18
2022-11-20T23:56:03.306Z,4.99
2022-11-20T23:58:32.966Z,4.99
